OPLA/LHE METAR and TAF weather

Enter ICAO airport designator
Station Type Date Time Source
OPLA METAR 2020/01/29 03:25 UTC NOAA

OPLA 290325Z 00000KT 2000 BR SCT040 BKN100 10/09 Q1017 RMK QFE992 RMK A29.99


Station Type Date Time Source
OPLA Decoded METAR 2020/01/29 03:25 UTC NOAA

Lahore Airport, Pakistan (OPLA) 31-31N 074-24E 217M
Jan 28, 2020 - 10:25 PM EST / 2020.01.29 0325 UTC
Wind: Calm:0
Visibility: 1 mile(s):0
Sky conditions: mostly cloudy
Weather: mist
Temperature: 50 F (10 C)
Dew Point: 48 F (9 C)
Relative Humidity: 93%
Pressure (altimeter): 30.03 in. Hg (1017 hPa)
ob: OPLA 290325Z 00000KT 2000 BR SCT040 BKN100 10/09 Q1017 RMK QFE992 RMK A29.99
cycle: 3

Station Type Date Time Source
OPLA TAF 2020/01/28 18:06 UTC NOAA

TAF TAF OPLA 281545Z 2818/2924 06006KT 2000 BR SCT040 SCT100 TX15/2909Z TN07/2901Z
TEMPO 2821/2902 33015G30KT 1000 TSRA FEW030CB SCT040 BKN100
FM290700 03008KT 4000 FU FEW040 SCT100
FM291400 34004KT 3000 BR SCT100

Example: see airport list